Time;durP1;ratioP1;P1;durP2;ratioP2;P2;SDS_P1;SDS_P2;PMS_P1;PMS_P2;Temp;Humidity;BMP_temperature;BMP_pressure;BME280_temperature;BME280_humidity;BME280_pressure;Samples;Min_cycle;Max_cycle;Signal;HPM_P1;HPM_P2
2022/07/16 00:02:11;;;;;;;;;;;;;;;14.28;72.97;101158.30;108279;1276;71693;-87
2022/07/16 00:04:37;;;;;;;;;;;;;;;14.26;72.99;101153.72;108286;1276;73566;-87
2022/07/16 00:07:05;;;;;;;;;;;;;;;14.24;73.32;101152.86;108081;1277;63186;-87
2022/07/16 00:09:31;;;;;;;;;;;;;;;14.23;73.22;101151.92;108301;1276;61296;-86
2022/07/16 00:11:58;;;;;;;;;;;;;;;14.22;73.43;101148.00;108335;1275;76106;-86
2022/07/16 00:14:25;;;;;;;;;;;;;;;14.20;73.59;101146.59;108284;1276;74108;-87
2022/07/16 00:16:52;;;;;;;;;;;;;;;14.18;73.82;101146.65;108110;1277;75289;-87
2022/07/16 00:19:20;;;;;;;;;;;;;;;14.18;73.91;101142.83;108290;1276;61493;-86
2022/07/16 00:21:50;;;;;;;;;;;;;;;14.16;73.93;101143.78;108328;1275;60238;-87
2022/07/16 00:24:17;;;;;;;;;;;;;;;14.15;73.98;101141.88;108294;1276;76966;-86
2022/07/16 00:26:44;;;;;;;;;;;;;;;14.15;73.98;101139.88;108278;1277;71246;-87
2022/07/16 00:29:11;;;;;;;;;;;;;;;14.15;74.25;101139.21;108246;1277;71985;-87
2022/07/16 00:31:38;;;;;;;;;;;;;;;14.15;73.99;101137.75;108342;1276;62450;-86
2022/07/16 00:34:06;;;;;;;;;;;;;;;14.16;74.21;101140.74;108385;1275;60297;-87
2022/07/16 00:36:34;;;;;;;;;;;;;;;14.17;74.04;101139.03;108476;1276;75688;-87
2022/07/16 00:39:01;;;;;;;;;;;;;;;14.17;74.02;101133.26;108020;1278;72584;-87
2022/07/16 00:41:28;;;;;;;;;;;;;;;14.19;73.99;101131.50;108315;1277;72930;-87
2022/07/16 00:44:02;;;;;;;;;;;;;;;14.20;73.76;101126.91;108400;1276;61484;-87
2022/07/16 00:46:30;;;;;;;;;;;;;;;14.22;73.85;101125.35;108048;1276;61683;-86
2022/07/16 00:48:57;;;;;;;;;;;;;;;14.25;73.57;101132.32;108106;1277;75711;-86
2022/07/16 00:51:24;;;;;;;;;;;;;;;14.29;73.11;101130.23;108326;1276;69722;-87
2022/07/16 00:53:52;;;;;;;;;;;;;;;14.35;72.72;101133.27;108345;1276;72973;-87
2022/07/16 00:56:19;;;;;;;;;;;;;;;14.41;72.23;101130.39;108073;1277;61784;-86
2022/07/16 00:58:47;;;;;;;;;;;;;;;14.47;71.67;101130.86;108393;1276;61382;-87
2022/07/16 01:01:14;;;;;;;;;;;;;;;14.52;71.38;101131.45;108351;1276;78872;-86
2022/07/16 01:03:42;;;;;;;;;;;;;;;14.56;71.33;101130.28;108103;1276;73036;-87
2022/07/16 01:06:09;;;;;;;;;;;;;;;14.59;71.05;101130.98;108120;1277;74491;-87
2022/07/16 01:08:38;;;;;;;;;;;;;;;14.61;71.01;101124.98;108160;1277;63123;-86
2022/07/16 01:11:06;;;;;;;;;;;;;;;14.63;70.79;101127.85;108145;1277;61600;-87
2022/07/16 01:13:33;;;;;;;;;;;;;;;14.63;70.76;101127.94;108362;1276;76091;-86
2022/07/16 01:16:01;;;;;;;;;;;;;;;14.63;70.82;101127.64;108187;1277;71180;-87
2022/07/16 01:18:27;;;;;;;;;;;;;;;14.62;70.68;101126.36;107809;1276;558860;-86
2022/07/16 01:20:54;;;;;;;;;;;;;;;14.61;70.86;101134.81;108296;1276;63176;-87
2022/07/16 01:23:22;;;;;;;;;;;;;;;14.62;70.69;101139.30;108305;1276;60109;-87
2022/07/16 01:25:48;;;;;;;;;;;;;;;14.65;70.66;101139.63;108322;1277;77065;-86
2022/07/16 01:28:16;;;;;;;;;;;;;;;14.71;70.58;101140.54;108093;1277;70207;-87
2022/07/16 01:30:43;;;;;;;;;;;;;;;14.80;70.57;101138.20;108053;1276;72845;-87
2022/07/16 01:33:20;;;;;;;;;;;;;;;14.91;70.47;101136.57;108068;1276;61302;-87
2022/07/16 01:35:46;;;;;;;;;;;;;;;15.06;70.60;101136.48;108120;1277;61076;-86
2022/07/16 01:38:13;;;;;;;;;;;;;;;15.18;70.46;101133.61;108129;1276;77789;-86
2022/07/16 01:40:40;;;;;;;;;;;;;;;15.28;70.21;101130.80;108083;1277;70840;-87
2022/07/16 01:43:17;;;;;;;;;;;;;;;15.35;70.29;101129.52;108334;1276;73651;-88
2022/07/16 01:45:44;;;;;;;;;;;;;;;15.40;70.13;101123.64;108047;1276;63543;-88
2022/07/16 01:48:12;;;;;;;;;;;;;;;15.44;69.63;101120.79;108091;1277;61795;-86
2022/07/16 01:50:42;;;;;;;;;;;;;;;15.47;69.33;101115.77;108325;1276;74634;-87
2022/07/16 01:53:09;;;;;;;;;;;;;;;15.49;69.22;101113.75;108072;1276;71374;-88
2022/07/16 01:55:36;;;;;;;;;;;;;;;15.52;69.16;101109.56;108080;1277;73738;-87
2022/07/16 01:58:04;;;;;;;;;;;;;;;15.53;68.99;101108.45;108088;1277;60698;-88
2022/07/16 02:00:31;;;;;;;;;;;;;;;15.55;68.99;101104.15;108301;1277;60353;-88
2022/07/16 02:02:59;;;;;;;;;;;;;;;15.56;69.05;101103.66;108286;1276;75720;-87
2022/07/16 02:05:26;;;;;;;;;;;;;;;15.58;68.92;101102.52;108350;1277;70238;-87
2022/07/16 02:07:53;;;;;;;;;;;;;;;15.59;68.90;101103.76;108023;1276;73997;-87
2022/07/16 02:10:20;;;;;;;;;;;;;;;15.60;68.89;101105.13;108115;1277;63319;-87
2022/07/16 02:12:46;;;;;;;;;;;;;;;15.61;68.75;101099.61;108125;1275;60741;-87
2022/07/16 02:15:16;;;;;;;;;;;;;;;15.61;68.79;101098.16;108080;1277;77920;-87
2022/07/16 02:17:43;;;;;;;;;;;;;;;15.60;68.79;101099.04;108307;1276;71580;-85
2022/07/16 02:20:11;;;;;;;;;;;;;;;15.59;68.86;101097.14;108071;1277;73991;-87
2022/07/16 02:22:37;;;;;;;;;;;;;;;15.59;68.81;101094.75;108321;1277;62569;-86
2022/07/16 02:25:05;;;;;;;;;;;;;;;15.59;68.86;101091.54;108244;1277;61434;-86
2022/07/16 02:27:32;;;;;;;;;;;;;;;15.58;69.06;101093.51;108158;1277;76086;-89
2022/07/16 02:29:59;;;;;;;;;;;;;;;15.59;69.08;101089.86;108128;1277;72718;-87
2022/07/16 02:32:27;;;;;;;;;;;;;;;15.60;69.03;101091.14;108316;1277;72324;-87
2022/07/16 02:34:54;;;;;;;;;;;;;;;15.63;68.93;101090.10;108330;1276;62581;-87
2022/07/16 02:37:21;;;;;;;;;;;;;;;15.65;68.88;101089.77;108311;1276;60213;-87
2022/07/16 02:39:50;;;;;;;;;;;;;;;15.68;68.86;101088.70;108141;1277;76769;-87
2022/07/16 02:42:17;;;;;;;;;;;;;;;15.71;68.53;101090.42;108129;1277;72249;-87
2022/07/16 02:44:44;;;;;;;;;;;;;;;15.76;68.24;101091.40;108114;1277;75299;-85
2022/07/16 02:47:11;;;;;;;;;;;;;;;15.79;68.06;101088.33;108074;1277;60022;-87
2022/07/16 02:49:37;;;;;;;;;;;;;;;15.82;67.76;101083.98;108364;1277;61700;-87
2022/07/16 02:52:05;;;;;;;;;;;;;;;15.84;67.71;101081.40;108078;1277;74786;-86
2022/07/16 02:54:32;;;;;;;;;;;;;;;15.86;67.73;101076.70;108323;1277;71052;-87
2022/07/16 02:56:59;;;;;;;;;;;;;;;15.87;67.71;101076.77;108058;1277;73590;-87
2022/07/16 02:59:26;;;;;;;;;;;;;;;15.88;67.59;101072.89;108262;1277;62116;-87
2022/07/16 03:01:52;;;;;;;;;;;;;;;15.89;67.51;101069.92;108302;1276;62983;-87
2022/07/16 03:04:20;;;;;;;;;;;;;;;15.89;67.07;101072.06;108419;1277;75713;-87
2022/07/16 03:06:47;;;;;;;;;;;;;;;15.90;66.83;101065.11;108497;1277;71666;-86
2022/07/16 03:09:13;;;;;;;;;;;;;;;15.92;66.66;101063.87;108359;1277;73081;-87
2022/07/16 03:11:40;;;;;;;;;;;;;;;15.94;66.58;101062.27;108377;1276;61848;-86
2022/07/16 03:14:07;;;;;;;;;;;;;;;15.94;66.37;101061.16;108149;1277;60372;-87
2022/07/16 03:16:35;;;;;;;;;;;;;;;15.94;66.19;101054.87;108168;1276;75359;-87
2022/07/16 03:19:02;;;;;;;;;;;;;;;15.94;66.01;101065.17;108343;1276;72510;-88
2022/07/16 03:21:29;;;;;;;;;;;;;;;15.94;65.88;101063.39;108335;1277;73416;-87
2022/07/16 03:23:56;;;;;;;;;;;;;;;15.95;65.57;101068.08;108326;1277;64300;-87
2022/07/16 03:26:23;;;;;;;;;;;;;;;15.98;65.04;101065.23;108320;1276;60239;-87
2022/07/16 03:28:50;;;;;;;;;;;;;;;16.02;64.76;101062.42;108334;1276;76504;-87
2022/07/16 03:31:17;;;;;;;;;;;;;;;16.05;64.60;101063.95;108334;1276;72559;-87
2022/07/16 03:33:44;;;;;;;;;;;;;;;16.07;64.37;101066.52;108145;1277;73005;-86
2022/07/16 03:36:11;;;;;;;;;;;;;;;16.10;64.01;101069.05;108111;1276;62283;-87
2022/07/16 03:41:24;;;;;;;;;;;;;;;16.13;63.68;101065.88;108316;1276;75808;-87
2022/07/16 03:43:51;;;;;;;;;;;;;;;16.15;63.65;101070.41;108334;1277;72431;-88
2022/07/16 03:46:18;;;;;;;;;;;;;;;16.16;63.74;101062.09;108276;1276;74168;-85
2022/07/16 03:48:47;;;;;;;;;;;;;;;16.17;63.82;101073.02;108340;1277;63675;-85
2022/07/16 03:51:14;;;;;;;;;;;;;;;16.20;63.69;101067.58;108424;1276;61688;-86
2022/07/16 03:53:41;;;;;;;;;;;;;;;16.20;63.70;101064.41;108248;1278;78193;-86
2022/07/16 03:56:08;;;;;;;;;;;;;;;16.20;63.75;101068.77;108169;1278;72069;-87
2022/07/16 03:58:35;;;;;;;;;;;;;;;16.19;63.89;101069.71;108101;1277;72943;-86
2022/07/16 04:01:02;;;;;;;;;;;;;;;16.19;63.79;101064.23;108360;1276;63291;-86
2022/07/16 04:03:32;;;;;;;;;;;;;;;16.19;63.87;101071.86;108292;1277;60235;-88
2022/07/16 04:05:59;;;;;;;;;;;;;;;16.19;64.04;101073.50;108336;1276;75736;-87
2022/07/16 04:08:26;;;;;;;;;;;;;;;16.19;64.20;101071.02;108076;1277;71646;-88
2022/07/16 04:10:53;;;;;;;;;;;;;;;16.17;64.11;101072.05;108334;1276;73288;-87
2022/07/16 04:13:20;;;;;;;;;;;;;;;16.16;64.49;101078.23;108277;1276;63232;-87
2022/07/16 04:15:47;;;;;;;;;;;;;;;16.14;65.25;101078.67;108267;1276;60380;-86
2022/07/16 04:18:13;;;;;;;;;;;;;;;16.09;65.47;101082.17;108001;1277;74812;-87
2022/07/16 04:20:40;;;;;;;;;;;;;;;16.05;65.47;101086.64;108034;1277;72468;-86
2022/07/16 04:23:08;;;;;;;;;;;;;;;16.01;65.82;101087.25;108040;1277;74047;-86
2022/07/16 04:25:35;;;;;;;;;;;;;;;15.99;65.82;101092.09;108331;1276;62685;-86
2022/07/16 04:28:01;;;;;;;;;;;;;;;15.96;66.13;101091.35;108140;1273;60269;-85
2022/07/16 04:30:29;;;;;;;;;;;;;;;15.92;67.35;101105.41;108175;1277;77141;-86
2022/07/16 04:32:55;;;;;;;;;;;;;;;15.82;69.11;101110.15;108157;1277;70832;-85
2022/07/16 04:35:22;;;;;;;;;;;;;;;15.66;71.23;101113.34;108335;1276;74975;-86
2022/07/16 04:37:50;;;;;;;;;;;;;;;15.45;73.72;101122.82;108231;1276;62866;-84
2022/07/16 04:40:17;;;;;;;;;;;;;;;15.17;76.81;101126.48;108354;1276;60983;-83
2022/07/16 04:42:44;;;;;;;;;;;;;;;14.85;79.86;101131.21;108309;1276;75575;-83
2022/07/16 04:45:12;;;;;;;;;;;;;;;14.60;81.54;101126.45;108328;1276;70435;-81
2022/07/16 04:47:39;;;;;;;;;;;;;;;14.38;84.00;101128.27;108336;1276;72233;-82
2022/07/16 04:50:06;;;;;;;;;;;;;;;14.21;85.24;101130.63;108327;1276;62533;-83
2022/07/16 04:52:33;;;;;;;;;;;;;;;14.10;86.43;101127.52;108173;1277;60203;-82
2022/07/16 04:55:00;;;;;;;;;;;;;;;14.01;88.27;101128.80;108307;1276;77015;-83
2022/07/16 04:57:27;;;;;;;;;;;;;;;13.94;89.71;101138.77;108167;1276;73520;-83
2022/07/16 04:59:54;;;;;;;;;;;;;;;13.89;90.31;101131.97;108260;1277;71971;-83
2022/07/16 05:05:06;;;;;;;;;;;;;;;13.80;91.84;101137.00;108298;1277;60353;-83
2022/07/16 05:07:33;;;;;;;;;;;;;;;13.77;92.97;101138.67;108204;1277;76017;-82
2022/07/16 05:10:03;;;;;;;;;;;;;;;13.70;94.93;101143.29;108329;1276;72683;-82
2022/07/16 05:12:30;;;;;;;;;;;;;;;13.62;97.04;101143.35;108347;1276;74894;-83
2022/07/16 05:14:57;;;;;;;;;;;;;;;13.56;98.01;101144.55;108321;1276;63560;-84
2022/07/16 05:17:23;;;;;;;;;;;;;;;13.48;99.41;101155.86;108318;1276;61418;-84
2022/07/16 05:19:51;;;;;;;;;;;;;;;13.40;100.00;101157.59;108171;1277;77480;-83
2022/07/16 05:22:18;;;;;;;;;;;;;;;13.33;100.00;101159.00;108157;1276;71563;-83
2022/07/16 05:24:45;;;;;;;;;;;;;;;13.28;100.00;101163.13;108309;1276;74098;-83
2022/07/16 05:27:12;;;;;;;;;;;;;;;13.24;100.00;101163.80;108327;1277;62099;-84
2022/07/16 05:29:39;;;;;;;;;;;;;;;13.21;100.00;101169.15;108329;1277;60166;-84
2022/07/16 05:32:06;;;;;;;;;;;;;;;13.20;100.00;101174.26;108175;1277;75326;-84
2022/07/16 05:34:33;;;;;;;;;;;;;;;13.18;100.00;101168.54;108316;1275;71461;-85
2022/07/16 05:37:00;;;;;;;;;;;;;;;13.19;100.00;101170.73;108214;1277;74757;-84
2022/07/16 05:39:29;;;;;;;;;;;;;;;13.21;100.00;101172.60;108252;1276;62442;-84
2022/07/16 05:41:56;;;;;;;;;;;;;;;13.26;100.00;101170.34;108348;1276;59957;-86
2022/07/16 05:44:25;;;;;;;;;;;;;;;13.32;100.00;101172.33;108320;1277;75678;-85
2022/07/16 05:46:52;;;;;;;;;;;;;;;13.37;100.00;101174.11;108194;1277;72228;-85
2022/07/16 05:49:19;;;;;;;;;;;;;;;13.43;100.00;101178.40;108314;1277;73014;-85
2022/07/16 05:51:46;;;;;;;;;;;;;;;13.49;100.00;101182.40;108260;1276;62012;-85
2022/07/16 05:54:13;;;;;;;;;;;;;;;13.55;100.00;101183.80;108219;1276;61511;-84
2022/07/16 05:56:40;;;;;;;;;;;;;;;13.60;100.00;101182.31;108355;1277;75732;-84
2022/07/16 05:59:07;;;;;;;;;;;;;;;13.65;100.00;101188.46;108387;1276;72936;-83
2022/07/16 06:01:34;;;;;;;;;;;;;;;13.70;100.00;101189.17;108365;1276;72980;-84
2022/07/16 06:04:01;;;;;;;;;;;;;;;13.73;100.00;101187.02;108316;1277;62178;-84
2022/07/16 06:06:28;;;;;;;;;;;;;;;13.80;100.00;101190.61;108231;1277;60447;-84
2022/07/16 06:08:55;;;;;;;;;;;;;;;13.95;100.00;101194.30;108246;1277;76676;-84
2022/07/16 06:11:22;;;;;;;;;;;;;;;14.08;100.00;101197.53;108345;1277;70324;-84
2022/07/16 06:13:49;;;;;;;;;;;;;;;14.20;100.00;101198.23;108329;1276;74588;-84
2022/07/16 06:16:16;;;;;;;;;;;;;;;14.32;100.00;101201.70;108210;1277;61823;-83
2022/07/16 06:18:43;;;;;;;;;;;;;;;14.44;99.99;101202.29;108369;1276;60505;-84
2022/07/16 06:21:10;;;;;;;;;;;;;;;14.55;98.56;101204.15;108357;1276;79405;-84
2022/07/16 06:23:37;;;;;;;;;;;;;;;14.66;97.81;101208.61;108191;1277;71752;-81
2022/07/16 06:26:07;;;;;;;;;;;;;;;14.83;97.45;101215.84;108200;1277;73991;-81
2022/07/16 06:28:34;;;;;;;;;;;;;;;14.88;95.11;101215.52;108197;1277;63648;-82
2022/07/16 06:31:01;;;;;;;;;;;;;;;14.92;95.28;101219.11;108301;1277;60378;-82
2022/07/16 06:33:31;;;;;;;;;;;;;;;14.93;95.14;101221.66;108220;1277;75301;-82
2022/07/16 06:35:58;;;;;;;;;;;;;;;15.00;95.40;101223.70;108232;1277;72416;-82
2022/07/16 06:38:24;;;;;;;;;;;;;;;15.09;94.88;101227.71;108331;1275;73919;-83
2022/07/16 06:40:52;;;;;;;;;;;;;;;15.14;93.51;101233.48;108222;1277;62873;-82
2022/07/16 06:43:19;;;;;;;;;;;;;;;15.22;92.07;101232.11;108222;1277;61155;-83
2022/07/16 06:45:46;;;;;;;;;;;;;;;15.30;91.35;101233.86;108327;1276;77044;-82
2022/07/16 06:48:13;;;;;;;;;;;;;;;15.39;90.76;101231.47;108242;1277;71753;-82
2022/07/16 06:50:40;;;;;;;;;;;;;;;15.58;90.50;101230.38;108327;1276;73058;-82
2022/07/16 06:53:06;;;;;;;;;;;;;;;15.56;88.40;101228.64;108347;1276;61941;-82
2022/07/16 06:55:33;;;;;;;;;;;;;;;15.52;87.90;101236.27;108331;1276;60284;-81
2022/07/16 06:58:00;;;;;;;;;;;;;;;15.58;87.97;101229.56;108200;1277;75769;-83
2022/07/16 07:00:28;;;;;;;;;;;;;;;15.65;87.41;101228.91;108338;1277;71369;-81
2022/07/16 07:02:55;;;;;;;;;;;;;;;15.76;85.55;101229.80;108105;1276;74200;-82
2022/07/16 07:05:22;;;;;;;;;;;;;;;15.84;84.21;101228.56;108319;1276;62327;-82
2022/07/16 07:07:49;;;;;;;;;;;;;;;15.99;84.12;101226.84;108352;1276;60439;-83
2022/07/16 07:10:19;;;;;;;;;;;;;;;16.23;83.76;101229.55;108321;1277;75599;-83
2022/07/16 07:12:46;;;;;;;;;;;;;;;16.32;81.71;101233.67;108233;1277;70088;-83
2022/07/16 07:15:13;;;;;;;;;;;;;;;16.24;80.85;101231.16;108382;1276;72966;-83
2022/07/16 07:17:40;;;;;;;;;;;;;;;16.15;81.24;101240.77;108154;1277;62190;-84
2022/07/16 07:20:07;;;;;;;;;;;;;;;16.14;81.80;101243.52;108157;1277;59848;-83
2022/07/16 07:22:34;;;;;;;;;;;;;;;16.29;80.60;101241.94;108325;1276;77046;-83
2022/07/16 07:25:01;;;;;;;;;;;;;;;16.41;79.49;101234.28;108318;1276;70707;-84
2022/07/16 07:27:27;;;;;;;;;;;;;;;16.45;79.47;101238.23;108243;1276;71736;-84
2022/07/16 07:29:54;;;;;;;;;;;;;;;16.44;78.69;101238.36;108183;1277;62547;-86
2022/07/16 07:32:21;;;;;;;;;;;;;;;16.49;78.73;101235.76;108321;1276;60614;-86
2022/07/16 07:34:48;;;;;;;;;;;;;;;16.68;77.25;101237.80;108045;1276;75742;-89
2022/07/16 07:37:15;;;;;;;;;;;;;;;16.81;75.80;101243.78;108363;1276;73449;-89
2022/07/16 07:39:44;;;;;;;;;;;;;;;16.78;76.02;101238.11;108370;1276;72976;-89
2022/07/16 07:42:17;;;;;;;;;;;;;;;16.68;76.13;101244.21;108335;1272;63036;-88
2022/07/16 07:44:46;;;;;;;;;;;;;;;16.59;76.70;101243.45;108279;1276;60100;-89
2022/07/16 07:50:00;;;;;;;;;;;;;;;16.66;76.12;101247.67;108118;1267;66665;-89
2022/07/16 07:52:30;;;;;;;;;;;;;;;16.94;75.39;101248.02;108095;1272;73065;-90
2022/07/16 07:54:58;;;;;;;;;;;;;;;17.31;72.86;101255.82;108319;1276;61901;-90
2022/07/16 07:57:27;;;;;;;;;;;;;;;17.46;71.21;101262.27;108337;1276;60183;-89
2022/07/16 08:00:16;;;;;;;;;;;;;;;17.52;69.24;101253.17;107540;1283;76771;-89
2022/07/16 08:02:44;;;;;;;;;;;;;;;17.66;69.45;101244.36;107723;1281;72893;-89
2022/07/16 08:05:11;;;;;;;;;;;;;;;17.76;70.03;101259.46;107614;1282;72712;-88
2022/07/16 08:07:38;;;;;;;;;;;;;;;17.76;70.20;101254.30;107672;1281;62303;-89
2022/07/16 08:10:09;;;;;;;;;;;;;;;17.84;69.90;101251.17;107584;1281;61901;-90
2022/07/16 08:12:37;;;;;;;;;;;;;;;17.99;68.31;101254.30;107673;1281;75531;-89
2022/07/16 08:15:04;;;;;;;;;;;;;;;18.14;67.89;101260.41;107565;1280;71482;-89
2022/07/16 08:17:37;;;;;;;;;;;;;;;18.30;67.09;101263.03;107631;1281;72395;-88
2022/07/16 08:20:05;;;;;;;;;;;;;;;18.30;66.98;101259.90;107574;1281;62004;-89
2022/07/16 08:22:32;;;;;;;;;;;;;;;18.28;66.84;101265.81;107657;1281;61445;-89
2022/07/16 08:27:43;;;;;;;;;;;;;;;18.07;66.35;101263.52;107547;1282;70866;-89
2022/07/16 08:30:12;;;;;;;;;;;;;;;17.98;66.95;101271.97;107724;1280;75488;-91
2022/07/16 08:32:42;;;;;;;;;;;;;;;17.83;64.69;101280.16;107508;1282;60641;-89
2022/07/16 08:35:08;;;;;;;;;;;;;;;17.80;65.24;101273.83;107729;1281;61005;-88
2022/07/16 08:37:37;;;;;;;;;;;;;;;17.84;65.68;101273.92;107488;1282;76586;-89
2022/07/16 08:40:05;;;;;;;;;;;;;;;18.11;65.37;101277.35;107532;1281;71180;-86
2022/07/16 08:42:32;;;;;;;;;;;;;;;18.38;63.99;101282.80;107635;1281;74289;-86
2022/07/16 08:44:59;;;;;;;;;;;;;;;18.51;62.74;101281.97;107481;1280;59903;-86
2022/07/16 08:47:27;;;;;;;;;;;;;;;18.48;62.33;101281.48;107532;1282;61390;-86
2022/07/16 08:49:55;;;;;;;;;;;;;;;18.43;62.83;101287.05;107510;1283;76934;-86
2022/07/16 08:52:23;;;;;;;;;;;;;;;18.26;62.84;101308.75;107680;1281;71550;-85
2022/07/16 08:54:50;;;;;;;;;;;;;;;18.11;62.92;101298.34;107559;1282;74034;-86
2022/07/16 08:57:18;;;;;;;;;;;;;;;17.99;63.27;101301.41;107399;1283;60273;-87
2022/07/16 08:59:45;;;;;;;;;;;;;;;17.84;63.12;101304.20;107530;1282;61280;-86
2022/07/16 09:02:12;;;;;;;;;;;;;;;17.80;63.58;101304.02;107456;1284;74381;-86
2022/07/16 09:04:40;;;;;;;;;;;;;;;18.08;63.18;101312.25;107615;1281;71712;-85
2022/07/16 09:07:06;;;;;;;;;;;;;;;18.45;62.82;101309.97;107539;1282;74225;-86
2022/07/16 09:09:33;;;;;;;;;;;;;;;18.75;61.37;101310.20;107734;1281;60406;-86
2022/07/16 09:12:00;;;;;;;;;;;;;;;18.85;60.61;101308.66;107768;1281;60351;-85
2022/07/16 09:14:27;;;;;;;;;;;;;;;18.85;60.01;101309.79;107712;1281;77004;-87
2022/07/16 09:16:54;;;;;;;;;;;;;;;18.78;59.52;101321.60;107514;1281;73030;-85
2022/07/16 09:19:28;;;;;;;;;;;;;;;18.86;59.71;101314.01;107914;1280;74437;-86
2022/07/16 09:22:10;;;;;;;;;;;;;;;19.09;59.06;101312.91;107530;1283;60229;-85
2022/07/16 09:24:44;;;;;;;;;;;;;;;19.32;57.26;101320.14;107794;1280;60321;-86
2022/07/16 09:27:11;;;;;;;;;;;;;;;19.40;55.68;101320.99;107744;1281;76401;-85
2022/07/16 09:29:46;;;;;;;;;;;;;;;19.54;55.00;101320.23;107535;1281;70860;-86
2022/07/16 09:32:13;;;;;;;;;;;;;;;19.77;54.02;101316.29;107587;1282;74377;-85
2022/07/16 09:34:40;;;;;;;;;;;;;;;20.02;52.72;101320.91;107372;1281;61540;-83
2022/07/16 09:37:07;;;;;;;;;;;;;;;20.23;51.33;101323.39;107509;1282;60416;-85
2022/07/16 09:39:34;;;;;;;;;;;;;;;20.36;50.42;101321.13;107544;1282;74735;-84
2022/07/16 09:42:01;;;;;;;;;;;;;;;20.33;50.59;101325.52;107665;1282;71695;-84
2022/07/16 09:44:30;;;;;;;;;;;;;;;20.17;51.96;101341.77;107281;1283;73239;-84
2022/07/16 09:47:07;;;;;;;;;;;;;;;19.99;53.23;101346.45;107676;1280;60650;-83
2022/07/16 09:49:36;;;;;;;;;;;;;;;19.77;54.20;101348.92;107482;1284;61409;-83
2022/07/16 09:52:04;;;;;;;;;;;;;;;19.63;54.81;101359.49;107524;1282;75823;-85
2022/07/16 09:54:32;;;;;;;;;;;;;;;19.61;54.88;101358.05;107527;1282;72693;-86
2022/07/16 09:57:09;;;;;;;;;;;;;;;19.68;54.08;101361.38;107456;1282;73020;-85
2022/07/16 09:59:36;;;;;;;;;;;;;;;19.72;53.49;101362.00;107561;1281;60623;-84
2022/07/16 10:02:23;;;;;;;;;;;;;;;19.85;53.09;101361.04;107707;1281;60589;-85
2022/07/16 10:04:50;;;;;;;;;;;;;;;20.07;52.57;101372.33;107659;1281;74019;-85
2022/07/16 10:07:17;;;;;;;;;;;;;;;20.22;50.90;101365.68;107727;1281;71601;-86
2022/07/16 10:09:44;;;;;;;;;;;;;;;20.22;50.08;101370.44;107652;1281;74257;-86
2022/07/16 10:12:15;;;;;;;;;;;;;;;20.25;49.35;101379.41;107537;1281;61471;-86
2022/07/16 10:14:45;;;;;;;;;;;;;;;20.34;48.91;101371.59;107678;1281;61409;-86
2022/07/16 10:17:29;;;;;;;;;;;;;;;20.44;46.77;101385.80;107685;1281;76347;-86
2022/07/16 10:20:00;;;;;;;;;;;;;;;20.56;46.32;101373.56;107706;1281;71287;-87
2022/07/16 10:22:29;;;;;;;;;;;;;;;20.82;45.71;101386.94;107671;1282;72410;-86
2022/07/16 10:24:56;;;;;;;;;;;;;;;20.84;45.94;101388.65;107712;1281;60559;-88
2022/07/16 10:27:34;;;;;;;;;;;;;;;20.55;45.52;101397.80;107617;1281;60150;-88
2022/07/16 10:30:07;;;;;;;;;;;;;;;20.31;46.07;101395.50;107785;1281;77045;-87
2022/07/16 10:32:52;;;;;;;;;;;;;;;20.23;45.35;101403.87;107577;1281;72394;-86
2022/07/16 10:35:32;;;;;;;;;;;;;;;20.27;44.82;101398.94;107778;1280;73385;-85
2022/07/16 10:38:05;;;;;;;;;;;;;;;20.30;43.87;101411.80;107530;1281;60030;-85
2022/07/16 10:40:46;;;;;;;;;;;;;;;20.26;42.79;101411.72;107839;1281;60240;-86
2022/07/16 10:43:16;;;;;;;;;;;;;;;20.19;43.02;101408.38;107448;1281;75869;-86
2022/07/16 10:45:55;;;;;;;;;;;;;;;20.18;42.08;101413.91;107786;1281;69689;-85
2022/07/16 10:48:23;;;;;;;;;;;;;;;20.27;41.73;101408.02;107633;1281;73948;-86
2022/07/16 10:51:08;;;;;;;;;;;;;;;20.49;41.84;101416.52;107768;1280;60368;-85
2022/07/16 10:53:54;;;;;;;;;;;;;;;20.75;40.70;101416.88;107797;1280;60322;-87
2022/07/16 10:56:39;;;;;;;;;;;;;;;20.69;40.16;101422.21;107466;1281;77525;-86
2022/07/16 10:59:07;;;;;;;;;;;;;;;20.59;40.17;101422.31;107788;1280;72209;-85
2022/07/16 11:01:39;;;;;;;;;;;;;;;20.63;39.41;101431.57;107567;1281;72113;-86
2022/07/16 11:04:07;;;;;;;;;;;;;;;20.70;38.61;101436.70;107807;1280;61548;-86
2022/07/16 11:06:34;;;;;;;;;;;;;;;20.88;37.86;101437.81;107787;1281;60390;-86
2022/07/16 11:09:01;;;;;;;;;;;;;;;20.86;36.56;101441.61;107796;1280;75688;-86
2022/07/16 11:11:46;;;;;;;;;;;;;;;20.88;36.55;101445.30;107587;1281;69591;-85
2022/07/16 11:14:12;;;;;;;;;;;;;;;20.94;35.94;101441.65;107790;1278;72990;-86
2022/07/16 11:16:59;;;;;;;;;;;;;;;21.04;36.75;101441.98;107584;1281;60918;-84
2022/07/16 11:19:27;;;;;;;;;;;;;;;21.20;38.07;101444.11;107861;1279;60095;-86
2022/07/16 11:21:57;;;;;;;;;;;;;;;21.16;38.36;101452.36;107634;1281;75393;-85
2022/07/16 11:24:25;;;;;;;;;;;;;;;21.08;39.21;101449.23;107657;1281;73018;-85
2022/07/16 11:26:53;;;;;;;;;;;;;;;20.95;39.34;101463.37;107802;1281;73655;-86
2022/07/16 11:29:20;;;;;;;;;;;;;;;20.78;39.28;101466.33;107815;1280;60337;-87
2022/07/16 11:31:48;;;;;;;;;;;;;;;20.84;37.96;101466.82;107770;1280;60738;-85
2022/07/16 11:34:16;;;;;;;;;;;;;;;20.96;37.34;101458.14;107782;1280;76775;-86
2022/07/16 11:36:44;;;;;;;;;;;;;;;21.11;37.26;101449.11;107387;1283;73325;-87
2022/07/16 11:39:12;;;;;;;;;;;;;;;21.21;36.88;101455.58;107804;1279;73007;-85
2022/07/16 11:41:40;;;;;;;;;;;;;;;21.17;36.80;101450.14;107775;1281;60635;-86
2022/07/16 11:44:17;;;;;;;;;;;;;;;21.29;36.99;101455.27;107700;1281;60215;-87
2022/07/16 11:46:46;;;;;;;;;;;;;;;21.17;36.86;101466.17;107804;1280;75547;-85
2022/07/16 11:49:20;;;;;;;;;;;;;;;21.18;37.91;101469.20;107807;1280;71425;-85
2022/07/16 11:51:47;;;;;;;;;;;;;;;21.05;38.40;101477.47;107810;1281;73563;-88
2022/07/16 11:54:14;;;;;;;;;;;;;;;20.80;37.93;101483.41;107783;1281;61659;-85
2022/07/16 11:56:41;;;;;;;;;;;;;;;20.62;38.46;101487.77;107778;1281;59888;-85
2022/07/16 11:59:27;;;;;;;;;;;;;;;20.75;38.33;101480.80;107734;1280;76284;-86
2022/07/16 12:02:04;;;;;;;;;;;;;;;21.12;37.99;101486.45;107526;1281;72472;-88
2022/07/16 12:04:31;;;;;;;;;;;;;;;21.17;37.90;101487.84;107688;1281;73110;-85
2022/07/16 12:06:58;;;;;;;;;;;;;;;21.02;39.79;101486.70;107662;1281;60089;-86
2022/07/16 12:09:30;;;;;;;;;;;;;;;21.13;40.95;101490.21;107451;1281;61710;-86
2022/07/16 12:12:01;;;;;;;;;;;;;;;21.52;40.49;101493.70;107638;1281;76801;-87
2022/07/16 12:14:42;;;;;;;;;;;;;;;21.98;39.43;101488.59;107738;1281;71966;-85
2022/07/16 12:17:33;;;;;;;;;;;;;;;22.15;38.34;101491.55;107742;1280;75406;-86
2022/07/16 12:20:04;;;;;;;;;;;;;;;22.61;36.69;101489.52;107621;1281;61172;-86
2022/07/16 12:22:42;;;;;;;;;;;;;;;22.76;35.86;101490.95;107469;1282;61511;-86
2022/07/16 12:25:38;;;;;;;;;;;;;;;22.48;34.98;101498.08;107733;1280;75798;-86
2022/07/16 12:28:09;;;;;;;;;;;;;;;22.56;33.24;101495.02;107486;1281;70465;-86
2022/07/16 12:30:37;;;;;;;;;;;;;;;23.07;32.36;101507.57;107464;1280;74266;-87
2022/07/16 12:33:05;;;;;;;;;;;;;;;23.08;31.96;101506.59;107771;1281;60880;-87
2022/07/16 12:35:43;;;;;;;;;;;;;;;22.97;32.53;101509.59;107658;1281;59882;-85
2022/07/16 12:38:28;;;;;;;;;;;;;;;23.06;32.83;101506.84;107758;1280;77542;-86
2022/07/16 12:40:56;;;;;;;;;;;;;;;23.61;32.46;101504.45;107782;1280;71277;-87
2022/07/16 12:43:22;;;;;;;;;;;;;;;24.06;32.19;101506.46;107653;1281;72782;-87
2022/07/16 12:45:49;;;;;;;;;;;;;;;24.10;32.08;101513.36;107813;1281;60151;-87